createdAt,value
2018-12-04T00:00:22.714Z,7.90
2018-12-04T00:02:50.182Z,7.90
2018-12-04T00:05:17.666Z,7.90
2018-12-04T00:07:45.119Z,8.00
2018-12-04T00:10:12.575Z,8.00
2018-12-04T00:12:40.043Z,8.10
2018-12-04T00:15:07.570Z,8.10
2018-12-04T00:17:35.039Z,8.20
2018-12-04T00:20:02.530Z,8.20
2018-12-04T00:22:29.986Z,8.20
2018-12-04T00:24:57.563Z,8.10
2018-12-04T00:27:25.023Z,8.10
2018-12-04T00:29:52.493Z,8.20
2018-12-04T00:32:19.962Z,8.10
2018-12-04T00:34:47.462Z,8.20
2018-12-04T00:37:16.731Z,8.20
2018-12-04T00:39:44.275Z,8.20
2018-12-04T00:42:11.751Z,8.20
2018-12-04T00:44:39.199Z,8.20
2018-12-04T00:47:06.665Z,8.20
2018-12-04T00:49:34.205Z,8.10
2018-12-04T00:52:01.660Z,8.10
2018-12-04T00:54:29.126Z,8.10
2018-12-04T00:56:56.617Z,8.20
2018-12-04T00:59:25.004Z,8.10
2018-12-04T01:01:52.459Z,8.10
2018-12-04T01:04:19.915Z,8.10
2018-12-04T01:06:47.493Z,8.10
2018-12-04T01:09:14.972Z,8.00
2018-12-04T01:11:43.218Z,7.90
2018-12-04T01:14:10.686Z,7.90
2018-12-04T01:16:38.150Z,7.90
2018-12-04T01:19:05.601Z,7.90
2018-12-04T01:21:33.134Z,8.00
2018-12-04T01:24:00.601Z,7.90
2018-12-04T01:26:28.068Z,7.90
2018-12-04T01:28:55.524Z,7.80
2018-12-04T01:31:23.003Z,7.80
2018-12-04T01:33:50.470Z,7.70
2018-12-04T01:36:17.936Z,7.70
2018-12-04T01:38:45.407Z,7.60
2018-12-04T01:41:12.972Z,7.70
2018-12-04T01:43:40.520Z,7.60
2018-12-04T01:46:08.005Z,7.50
2018-12-04T01:48:35.553Z,7.60
2018-12-04T01:51:03.791Z,7.70
2018-12-04T01:53:31.256Z,7.60
2018-12-04T01:55:58.767Z,7.60
2018-12-04T01:58:26.600Z,7.60
2018-12-04T02:00:54.066Z,7.60
2018-12-04T02:03:22.822Z,7.50
2018-12-04T02:05:51.055Z,7.50
2018-12-04T02:08:18.551Z,7.50
2018-12-04T02:10:47.534Z,7.40
2018-12-04T02:13:15.015Z,7.40
2018-12-04T02:15:43.233Z,7.60
2018-12-04T02:18:10.681Z,7.50
2018-12-04T02:20:38.185Z,7.60
2018-12-04T02:23:05.761Z,7.60
2018-12-04T02:25:33.241Z,7.60
2018-12-04T02:28:01.453Z,7.70
2018-12-04T02:30:28.915Z,7.70
2018-12-04T02:32:56.377Z,7.70
2018-12-04T02:35:23.883Z,7.60
2018-12-04T02:37:51.350Z,7.60
2018-12-04T02:40:18.803Z,7.70
2018-12-04T02:42:46.287Z,7.70
2018-12-04T02:45:15.341Z,7.70
2018-12-04T02:47:42.826Z,7.70
2018-12-04T02:50:10.280Z,7.70
2018-12-04T02:52:37.734Z,7.70
2018-12-04T02:55:05.323Z,7.70
2018-12-04T02:57:32.780Z,7.70
2018-12-04T03:00:00.344Z,7.70
2018-12-04T03:02:27.901Z,7.70
2018-12-04T03:04:55.355Z,7.70
2018-12-04T03:07:22.821Z,7.60
2018-12-04T03:09:50.293Z,7.50
2018-12-04T03:12:17.767Z,7.50
2018-12-04T03:14:46.355Z,7.40
2018-12-04T03:17:15.345Z,7.30
2018-12-04T03:19:42.893Z,7.30
2018-12-04T03:22:10.362Z,7.40
2018-12-04T03:24:37.811Z,7.40
2018-12-04T03:27:05.279Z,7.50
2018-12-04T03:29:32.742Z,7.50
2018-12-04T03:32:00.204Z,7.60
2018-12-04T03:34:27.660Z,7.60
2018-12-04T03:36:55.134Z,7.60
2018-12-04T03:39:22.598Z,7.60
2018-12-04T03:41:50.157Z,7.60
2018-12-04T03:44:17.618Z,7.70
2018-12-04T03:46:45.075Z,7.70
2018-12-04T03:49:12.532Z,7.70
2018-12-04T03:51:40.013Z,7.70
2018-12-04T03:54:07.581Z,7.70
2018-12-04T03:56:35.844Z,7.60
2018-12-04T03:59:03.861Z,7.50
2018-12-04T04:01:31.313Z,7.60
2018-12-04T04:03:59.568Z,7.50
2018-12-04T04:06:27.038Z,7.40
2018-12-04T04:08:54.510Z,7.50
2018-12-04T04:11:22.753Z,7.50
2018-12-04T04:13:50.207Z,7.50
2018-12-04T04:16:17.699Z,7.40
2018-12-04T04:18:45.260Z,7.30
2018-12-04T04:21:12.720Z,7.30
2018-12-04T04:23:40.160Z,7.10
2018-12-04T04:26:07.628Z,7.00
2018-12-04T04:28:35.078Z,7.00
2018-12-04T04:31:02.582Z,7.00
2018-12-04T04:33:30.127Z,7.00
2018-12-04T04:35:57.586Z,7.10
2018-12-04T04:38:25.062Z,7.10
2018-12-04T04:40:54.025Z,7.10
2018-12-04T04:43:21.517Z,7.00
2018-12-04T04:45:48.970Z,7.00
2018-12-04T04:48:16.434Z,7.00
2018-12-04T04:50:43.911Z,7.00
2018-12-04T04:53:11.474Z,6.90
2018-12-04T04:55:38.941Z,6.80
2018-12-04T04:58:06.496Z,6.90
2018-12-04T05:00:33.959Z,6.90
2018-12-04T05:03:01.422Z,6.70
2018-12-04T05:05:28.886Z,6.60
2018-12-04T05:07:56.361Z,6.60
2018-12-04T05:10:24.589Z,6.50
2018-12-04T05:12:53.396Z,6.50
2018-12-04T05:15:20.864Z,6.70
2018-12-04T05:17:48.325Z,6.70
2018-12-04T05:20:15.896Z,6.60
2018-12-04T05:22:43.462Z,6.70
2018-12-04T05:25:10.923Z,6.70
2018-12-04T05:27:38.391Z,6.60
2018-12-04T05:30:05.957Z,6.60
2018-12-04T05:32:33.421Z,6.60
2018-12-04T05:35:00.866Z,6.70
2018-12-04T05:37:28.338Z,6.50
2018-12-04T05:39:55.888Z,6.40
2018-12-04T05:42:23.354Z,6.40
2018-12-04T05:44:50.808Z,6.20
2018-12-04T05:47:18.294Z,6.30
2018-12-04T05:49:45.765Z,6.30
2018-12-04T05:52:13.979Z,6.30
2018-12-04T05:54:41.433Z,6.30
2018-12-04T05:57:08.951Z,6.80
2018-12-04T05:59:37.159Z,6.70
2018-12-04T06:02:05.404Z,6.60
2018-12-04T06:04:32.875Z,6.60
2018-12-04T06:07:00.313Z,6.70
2018-12-04T06:09:27.773Z,6.70
2018-12-04T06:11:55.244Z,6.60
2018-12-04T06:14:22.699Z,6.60
2018-12-04T06:16:50.150Z,6.60
2018-12-04T06:19:17.615Z,6.50
2018-12-04T06:21:45.071Z,6.40
2018-12-04T06:24:12.581Z,6.60
2018-12-04T06:26:40.802Z,6.40
2018-12-04T06:29:08.247Z,6.40
2018-12-04T06:31:35.710Z,6.40
2018-12-04T06:34:03.761Z,6.60
2018-12-04T06:36:33.798Z,6.30
2018-12-04T06:39:02.232Z,6.30
2018-12-04T06:41:29.698Z,6.30
2018-12-04T06:43:57.185Z,6.30
2018-12-04T06:46:24.640Z,6.20
2018-12-04T06:48:52.107Z,6.40
2018-12-04T06:51:21.064Z,6.30
2018-12-04T06:53:48.541Z,6.30
2018-12-04T06:56:15.988Z,6.10
2018-12-04T06:58:43.432Z,6.20
2018-12-04T07:01:10.904Z,6.30
2018-12-04T07:03:38.390Z,6.50
2018-12-04T07:06:05.869Z,6.40
2018-12-04T07:08:33.426Z,6.40
2018-12-04T07:11:00.883Z,6.50
2018-12-04T07:13:28.453Z,6.50
2018-12-04T07:15:55.919Z,6.40
2018-12-04T07:18:23.393Z,6.40
2018-12-04T07:20:50.862Z,6.30
2018-12-04T07:23:18.403Z,6.40
2018-12-04T07:25:45.946Z,6.20
2018-12-04T07:28:13.410Z,6.10
2018-12-04T07:30:40.896Z,6.20
2018-12-04T07:33:08.370Z,6.10
2018-12-04T07:35:35.904Z,6.00
2018-12-04T07:38:03.604Z,6.10
2018-12-04T07:40:31.861Z,5.90
2018-12-04T07:42:59.313Z,5.90
2018-12-04T07:45:26.786Z,5.90
2018-12-04T07:47:54.242Z,5.90
2018-12-04T07:50:21.709Z,5.80
2018-12-04T07:52:49.173Z,5.90
2018-12-04T07:55:16.730Z,6.00
2018-12-04T07:57:44.302Z,6.00
2018-12-04T08:00:11.886Z,6.00
2018-12-04T08:02:40.114Z,6.00
2018-12-04T08:05:07.568Z,6.00
2018-12-04T08:07:35.044Z,6.00
2018-12-04T08:10:02.535Z,5.90
2018-12-04T08:12:29.986Z,6.00
2018-12-04T08:14:57.453Z,6.20
2018-12-04T08:17:25.016Z,5.90
2018-12-04T08:19:52.473Z,5.80
2018-12-04T08:22:19.938Z,5.90
2018-12-04T08:24:47.400Z,5.90
2018-12-04T08:27:14.970Z,5.80
2018-12-04T08:29:42.418Z,5.80
2018-12-04T08:32:10.002Z,5.90
2018-12-04T08:34:37.452Z,5.90
2018-12-04T08:37:05.018Z,6.10
2018-12-04T08:39:32.587Z,6.10
2018-12-04T08:42:00.054Z,6.20
2018-12-04T08:44:27.506Z,6.40
2018-12-04T08:46:55.783Z,6.40
2018-12-04T08:49:23.240Z,6.40
2018-12-04T08:51:50.702Z,6.30
2018-12-04T08:54:18.274Z,6.30
2018-12-04T08:56:45.715Z,6.30
2018-12-04T08:59:13.203Z,6.30
2018-12-04T09:01:40.658Z,6.30
2018-12-04T09:04:08.218Z,6.30
2018-12-04T09:06:35.688Z,6.20
2018-12-04T09:09:04.329Z,6.30
2018-12-04T09:11:31.792Z,6.20
2018-12-04T09:13:59.262Z,6.20
2018-12-04T09:16:26.767Z,6.30
2018-12-04T09:18:54.368Z,6.40
2018-12-04T09:21:21.823Z,6.40
2018-12-04T09:23:50.063Z,6.50
2018-12-04T09:26:17.508Z,6.40
2018-12-04T09:28:45.011Z,6.50
2018-12-04T09:31:13.243Z,6.60
2018-12-04T09:33:40.756Z,6.60
2018-12-04T09:36:08.199Z,6.60
2018-12-04T09:38:35.659Z,6.60
2018-12-04T09:41:04.854Z,6.60
2018-12-04T09:43:32.332Z,6.60
2018-12-04T09:45:59.804Z,6.70
2018-12-04T09:48:28.021Z,6.80
2018-12-04T09:50:55.490Z,6.80
2018-12-04T09:53:25.371Z,6.90
2018-12-04T09:55:50.442Z,7.10
2018-12-04T09:58:18.063Z,7.30
2018-12-04T10:00:45.508Z,7.50
2018-12-04T10:03:13.811Z,7.80
2018-12-04T10:05:41.223Z,7.80
2018-12-04T10:08:08.684Z,8.00
2018-12-04T10:10:36.190Z,8.00
2018-12-04T10:13:03.926Z,7.80
2018-12-04T10:15:32.167Z,7.50
2018-12-04T10:17:59.630Z,7.50
2018-12-04T10:20:27.082Z,7.40
2018-12-04T10:22:54.539Z,7.20
2018-12-04T10:25:22.031Z,7.20
2018-12-04T10:27:49.569Z,7.10
2018-12-04T10:30:17.062Z,7.00
2018-12-04T10:32:44.514Z,7.10
2018-12-04T10:35:11.984Z,7.10
2018-12-04T10:37:39.547Z,7.10
2018-12-04T10:40:07.107Z,7.20
2018-12-04T10:42:34.664Z,7.20
2018-12-04T10:45:02.133Z,7.10
2018-12-04T10:47:29.596Z,6.90
2018-12-04T10:49:57.047Z,6.80
2018-12-04T10:52:24.501Z,6.70
2018-12-04T10:54:51.965Z,6.70
2018-12-04T10:57:19.443Z,6.60
2018-12-04T10:59:46.893Z,6.60
2018-12-04T11:02:20.179Z,6.50
2018-12-04T11:04:47.645Z,6.50
2018-12-04T11:07:15.134Z,6.50
2018-12-04T11:09:44.248Z,6.40
2018-12-04T11:12:12.412Z,6.40
2018-12-04T11:14:39.353Z,6.40
2018-12-04T11:17:06.807Z,6.40
2018-12-04T11:19:34.264Z,6.50
2018-12-04T11:22:01.826Z,6.50
2018-12-04T11:24:29.307Z,6.50
2018-12-04T11:26:56.768Z,6.50
2018-12-04T11:29:24.234Z,6.50
2018-12-04T11:31:51.690Z,6.60
2018-12-04T11:34:19.257Z,6.60
2018-12-04T11:36:46.821Z,6.60
2018-12-04T11:39:14.277Z,6.60
2018-12-04T11:41:41.837Z,6.50
2018-12-04T11:44:09.293Z,6.50
2018-12-04T11:46:36.861Z,6.50
2018-12-04T11:49:04.443Z,6.50
2018-12-04T11:51:31.997Z,6.50
2018-12-04T11:53:59.463Z,6.50
2018-12-04T11:56:28.458Z,6.60
2018-12-04T11:58:55.930Z,6.60
2018-12-04T12:01:26.224Z,6.50
2018-12-04T12:03:53.671Z,6.60
2018-12-04T12:06:21.157Z,6.50
2018-12-04T12:08:48.620Z,6.40
2018-12-04T12:11:16.189Z,6.40
2018-12-04T12:13:43.806Z,6.50
2018-12-04T12:16:11.280Z,6.50
2018-12-04T12:18:38.776Z,6.50
2018-12-04T12:21:06.238Z,6.50
2018-12-04T12:23:33.700Z,6.60
2018-12-04T12:26:01.285Z,6.70
2018-12-04T12:28:28.756Z,6.60
2018-12-04T12:30:56.204Z,6.60
2018-12-04T12:33:23.762Z,6.60
2018-12-04T12:35:51.221Z,6.60
2018-12-04T12:38:18.689Z,6.60
2018-12-04T12:40:47.670Z,6.70
2018-12-04T12:43:15.121Z,6.70
2018-12-04T12:45:42.581Z,6.70
2018-12-04T12:48:10.036Z,6.70
2018-12-04T12:50:37.494Z,6.70
2018-12-04T12:53:04.989Z,6.70
2018-12-04T12:55:32.552Z,6.70
2018-12-04T12:57:59.998Z,6.70
2018-12-04T13:00:27.578Z,6.80
2018-12-04T13:02:55.131Z,6.80
2018-12-04T13:05:22.704Z,6.90
2018-12-04T13:07:50.267Z,6.90
2018-12-04T13:10:17.853Z,6.90
2018-12-04T13:12:45.311Z,6.90
2018-12-04T13:15:12.867Z,6.80
2018-12-04T13:17:41.948Z,6.70
2018-12-04T13:20:09.411Z,6.70
2018-12-04T13:22:36.984Z,6.70
2018-12-04T13:25:04.447Z,6.70
2018-12-04T13:27:31.923Z,6.70
2018-12-04T13:29:59.484Z,6.80
2018-12-04T13:32:26.934Z,6.90
2018-12-04T13:34:54.494Z,6.80
2018-12-04T13:37:22.070Z,6.80
2018-12-04T13:39:49.534Z,6.80
2018-12-04T13:42:17.004Z,6.90
2018-12-04T13:44:44.464Z,6.90
2018-12-04T13:47:11.952Z,6.90
2018-12-04T13:49:40.190Z,6.90
2018-12-04T13:52:07.665Z,6.90
2018-12-04T13:54:35.148Z,6.80
2018-12-04T13:57:04.303Z,6.60
2018-12-04T13:59:31.818Z,6.60
2018-12-04T14:01:59.283Z,6.60
2018-12-04T14:04:26.767Z,6.60
2018-12-04T14:06:54.236Z,6.70
2018-12-04T14:09:25.967Z,6.70
2018-12-04T14:11:50.004Z,6.70
2018-12-04T14:14:17.471Z,6.70
2018-12-04T14:16:45.051Z,6.60
2018-12-04T14:19:13.313Z,6.50
2018-12-04T14:21:40.877Z,6.50
2018-12-04T14:24:08.365Z,6.50
2018-12-04T14:26:35.805Z,6.50
2018-12-04T14:29:03.933Z,6.50
2018-12-04T14:31:31.477Z,6.50
2018-12-04T14:33:59.777Z,6.40
2018-12-04T14:36:27.296Z,6.40
2018-12-04T14:38:54.737Z,6.40
2018-12-04T14:41:22.305Z,6.40
2018-12-04T14:43:49.959Z,6.40
2018-12-04T14:46:17.430Z,6.40
2018-12-04T14:48:44.927Z,6.30
2018-12-04T14:51:12.380Z,6.30
2018-12-04T14:53:39.822Z,6.30
2018-12-04T14:56:07.385Z,6.20
2018-12-04T14:58:34.871Z,6.20
2018-12-04T15:01:02.438Z,6.20
2018-12-04T15:03:31.169Z,6.20
2018-12-04T15:05:58.724Z,6.20
2018-12-04T15:08:26.956Z,6.20
2018-12-04T15:10:54.431Z,6.20
2018-12-04T15:13:21.898Z,6.20
2018-12-04T15:15:49.439Z,6.20
2018-12-04T15:18:17.012Z,6.10
2018-12-04T15:20:45.271Z,6.10
2018-12-04T15:23:12.767Z,6.10
2018-12-04T15:25:40.227Z,6.10
2018-12-04T15:28:07.830Z,6.00
2018-12-04T15:30:35.429Z,6.00
2018-12-04T15:33:03.647Z,6.00
2018-12-04T15:35:31.926Z,5.90
2018-12-04T15:38:00.226Z,5.90
2018-12-04T15:40:27.732Z,5.90
2018-12-04T15:42:55.906Z,5.90
2018-12-04T15:45:24.606Z,5.90
2018-12-04T15:47:52.092Z,5.80
2018-12-04T15:50:19.643Z,5.90
2018-12-04T15:52:47.877Z,6.00
2018-12-04T15:55:15.448Z,6.00
2018-12-04T15:57:42.947Z,6.00
2018-12-04T16:00:10.417Z,5.90
2018-12-04T16:02:37.897Z,5.90
2018-12-04T16:05:06.156Z,5.90
2018-12-04T16:07:35.116Z,5.80
2018-12-04T16:10:03.499Z,5.80
2018-12-04T16:12:30.961Z,5.80
2018-12-04T16:14:58.423Z,5.80
2018-12-04T16:17:25.908Z,5.80
2018-12-04T16:19:53.363Z,5.70
2018-12-04T16:22:20.831Z,5.70
2018-12-04T16:24:48.291Z,5.70
2018-12-04T16:27:18.259Z,5.60
2018-12-04T16:29:45.831Z,5.40
2018-12-04T16:32:13.273Z,5.40
2018-12-04T16:34:41.518Z,5.40
2018-12-04T16:37:09.087Z,5.40
2018-12-04T16:39:36.654Z,5.40
2018-12-04T16:42:04.118Z,5.30
2018-12-04T16:44:31.585Z,5.30
2018-12-04T16:46:59.054Z,5.40
2018-12-04T16:49:26.500Z,5.40
2018-12-04T16:51:54.783Z,5.50
2018-12-04T16:54:22.346Z,5.50
2018-12-04T16:56:49.799Z,5.50
2018-12-04T16:59:17.363Z,5.50
2018-12-04T17:01:44.823Z,5.70
2018-12-04T17:04:12.299Z,5.60
2018-12-04T17:06:39.762Z,5.50
2018-12-04T17:09:07.989Z,5.50
2018-12-04T17:11:35.452Z,5.40
2018-12-04T17:14:03.879Z,5.50
2018-12-04T17:16:31.325Z,5.50
2018-12-04T17:18:58.786Z,5.40
2018-12-04T17:21:26.248Z,5.30
2018-12-04T17:23:53.719Z,5.30
2018-12-04T17:26:21.175Z,5.40
2018-12-04T17:28:48.630Z,5.40
2018-12-04T17:31:16.078Z,5.40
2018-12-04T17:33:43.534Z,5.40
2018-12-04T17:36:10.995Z,5.40
2018-12-04T17:38:38.494Z,5.30
2018-12-04T17:41:05.957Z,5.20
2018-12-04T17:43:33.419Z,5.20
2018-12-04T17:46:00.985Z,5.30
2018-12-04T17:48:28.545Z,5.30
2018-12-04T17:50:56.010Z,5.30
2018-12-04T17:53:23.483Z,5.40
2018-12-04T17:55:52.457Z,5.30
2018-12-04T17:58:20.934Z,5.30
2018-12-04T18:00:48.399Z,5.30
2018-12-04T18:03:15.852Z,5.30
2018-12-04T18:05:43.320Z,5.20
2018-12-04T18:08:10.803Z,5.20
2018-12-04T18:10:38.360Z,5.20
2018-12-04T18:13:05.827Z,5.20
2018-12-04T18:15:33.405Z,5.10
2018-12-04T18:18:00.760Z,5.00
2018-12-04T18:20:28.229Z,4.80
2018-12-04T18:22:55.671Z,4.90
2018-12-04T18:25:23.144Z,4.90
2018-12-04T18:27:50.698Z,5.00
2018-12-04T18:30:18.194Z,4.90
2018-12-04T18:32:46.414Z,5.00
2018-12-04T18:35:13.918Z,5.00
2018-12-04T18:37:41.383Z,4.90
2018-12-04T18:40:08.835Z,4.80
2018-12-04T18:42:36.304Z,4.80
2018-12-04T18:45:03.976Z,4.90
2018-12-04T18:47:31.429Z,4.90
2018-12-04T18:49:59.661Z,4.90
2018-12-04T18:52:27.124Z,4.90
2018-12-04T18:54:54.594Z,4.80
2018-12-04T18:57:22.068Z,4.90
2018-12-04T18:59:49.534Z,4.70
2018-12-04T19:02:17.005Z,4.60
2018-12-04T19:04:44.569Z,4.70
2018-12-04T19:07:12.039Z,4.70
2018-12-04T19:09:40.319Z,4.60
2018-12-04T19:12:07.880Z,4.60
2018-12-04T19:14:35.436Z,4.60
2018-12-04T19:17:03.918Z,4.70
2018-12-04T19:19:31.373Z,4.70
2018-12-04T19:21:58.833Z,4.60
2018-12-04T19:24:26.295Z,4.50
2018-12-04T19:26:53.864Z,4.60
2018-12-04T19:29:22.461Z,4.50
2018-12-04T19:31:49.923Z,4.50
2018-12-04T19:34:17.376Z,4.60
2018-12-04T19:36:46.498Z,4.50
2018-12-04T19:39:14.716Z,4.40
2018-12-04T19:41:42.175Z,4.40
2018-12-04T19:44:09.695Z,4.40
2018-12-04T19:46:37.150Z,4.30
2018-12-04T19:49:04.589Z,4.40
2018-12-04T19:51:32.077Z,4.40
2018-12-04T19:53:59.634Z,4.40
2018-12-04T19:56:27.126Z,4.40
2018-12-04T19:58:55.357Z,4.40
2018-12-04T20:01:22.822Z,4.40
2018-12-04T20:03:50.285Z,4.40
2018-12-04T20:06:17.737Z,4.30
2018-12-04T20:08:52.203Z,4.30
2018-12-04T20:11:19.142Z,4.30
2018-12-04T20:13:46.598Z,4.30
2018-12-04T20:16:14.154Z,4.30
2018-12-04T20:18:41.625Z,4.30
2018-12-04T20:21:09.082Z,4.40
2018-12-04T20:23:36.550Z,4.30
2018-12-04T20:26:04.107Z,4.20
2018-12-04T20:28:31.579Z,4.20
2018-12-04T20:30:59.805Z,4.20
2018-12-04T20:33:27.273Z,4.20
2018-12-04T20:35:54.734Z,4.20
2018-12-04T20:38:22.193Z,4.30
2018-12-04T20:40:49.648Z,4.40
2018-12-04T20:43:17.100Z,4.40
2018-12-04T20:45:45.318Z,4.30
2018-12-04T20:48:12.789Z,4.30
2018-12-04T20:50:40.366Z,4.30
2018-12-04T20:53:07.938Z,4.40
2018-12-04T20:55:35.490Z,4.40
2018-12-04T20:58:04.451Z,4.40
2018-12-04T21:00:31.964Z,4.40
2018-12-04T21:02:59.529Z,4.40
2018-12-04T21:05:27.072Z,4.50
2018-12-04T21:07:54.650Z,4.50
2018-12-04T21:10:23.633Z,4.50
2018-12-04T21:12:51.099Z,4.50
2018-12-04T21:15:18.579Z,4.50
2018-12-04T21:17:46.124Z,4.40
2018-12-04T21:20:13.692Z,4.30
2018-12-04T21:22:41.255Z,4.30
2018-12-04T21:25:08.725Z,4.30
2018-12-04T21:27:42.015Z,4.30
2018-12-04T21:30:15.762Z,4.30
2018-12-04T21:32:48.365Z,4.20
2018-12-04T21:35:21.439Z,4.20
2018-12-04T21:37:54.738Z,4.20
2018-12-04T21:40:27.843Z,4.20
2018-12-04T21:45:58.076Z,4.20
2018-12-04T21:48:25.520Z,4.20
2018-12-04T21:50:53.737Z,4.20
2018-12-04T21:53:21.202Z,4.20
2018-12-04T21:55:48.769Z,4.20
2018-12-04T21:58:16.233Z,4.20
2018-12-04T22:00:43.699Z,4.30
2018-12-04T22:03:11.162Z,4.20
2018-12-04T22:05:38.609Z,4.20
2018-12-04T22:08:06.071Z,4.30
2018-12-04T22:10:33.639Z,4.20
2018-12-04T22:13:01.097Z,4.30
2018-12-04T22:15:28.540Z,4.30
2018-12-04T22:17:55.991Z,4.20
2018-12-04T22:20:23.445Z,4.20
2018-12-04T22:22:50.905Z,4.20
2018-12-04T22:25:18.383Z,4.20
2018-12-04T22:27:45.830Z,4.30
2018-12-04T22:30:13.300Z,4.30
2018-12-04T22:32:40.785Z,4.30
2018-12-04T22:35:08.273Z,4.30
2018-12-04T22:37:35.825Z,4.30
2018-12-04T22:40:04.486Z,4.30
2018-12-04T22:42:31.973Z,4.30
2018-12-04T22:45:00.210Z,4.30
2018-12-04T22:47:27.658Z,4.30
2018-12-04T22:49:55.144Z,4.40
2018-12-04T22:52:22.610Z,4.40
2018-12-04T22:54:50.067Z,4.40
2018-12-04T22:57:17.541Z,4.40
2018-12-04T22:59:44.991Z,4.40
2018-12-04T23:02:12.449Z,4.40
2018-12-04T23:04:39.912Z,4.40
2018-12-04T23:07:07.369Z,4.40
2018-12-04T23:09:34.871Z,4.40
2018-12-04T23:12:02.395Z,4.40
2018-12-04T23:14:30.596Z,4.40
2018-12-04T23:16:58.075Z,4.40
2018-12-04T23:19:26.305Z,4.30
2018-12-04T23:21:53.786Z,4.30
2018-12-04T23:24:21.251Z,4.40
2018-12-04T23:26:48.743Z,4.40
2018-12-04T23:29:16.632Z,4.40
2018-12-04T23:31:44.083Z,4.30
2018-12-04T23:34:11.552Z,4.40
2018-12-04T23:36:39.153Z,4.30
2018-12-04T23:39:06.670Z,4.40
2018-12-04T23:41:34.227Z,4.30
2018-12-04T23:44:01.691Z,4.40
2018-12-04T23:46:29.250Z,4.40
2018-12-04T23:48:56.709Z,4.40
2018-12-04T23:51:24.161Z,4.40
2018-12-04T23:53:51.646Z,4.40
2018-12-04T23:56:19.092Z,4.50
2018-12-04T23:58:46.615Z,4.50
